createdAt,value
2022-08-19T00:01:02.515Z,15.10
2022-08-19T00:06:06.054Z,13.80
2022-08-19T00:16:26.496Z,15.13
2022-08-19T00:26:34.669Z,19.63
2022-08-19T00:31:38.190Z,19.05
2022-08-19T00:36:41.761Z,18.10
2022-08-19T00:41:48.576Z,18.80
2022-08-19T00:46:55.370Z,19.53
2022-08-19T00:52:04.941Z,19.98
2022-08-19T00:57:14.330Z,19.15
2022-08-19T01:02:18.617Z,18.67
2022-08-19T01:07:21.927Z,18.38
2022-08-19T01:12:28.680Z,18.90
2022-08-19T01:17:32.596Z,18.85
2022-08-19T01:22:44.933Z,17.80
2022-08-19T01:27:53.623Z,18.02
2022-08-19T01:32:58.571Z,18.67
2022-08-19T01:38:08.399Z,17.83
2022-08-19T01:43:12.691Z,17.67
2022-08-19T01:48:16.695Z,17.40
2022-08-19T01:53:21.397Z,17.33
2022-08-19T01:58:31.474Z,17.10
2022-08-19T02:03:35.640Z,17.23
2022-08-19T02:08:41.779Z,17.60
2022-08-19T02:13:45.093Z,17.03
2022-08-19T02:18:49.579Z,17.38
2022-08-19T02:23:54.563Z,17.08
2022-08-19T02:28:57.905Z,16.80
2022-08-19T02:34:01.471Z,16.92
2022-08-19T02:39:06.283Z,17.27
2022-08-19T02:44:29.101Z,18.67
2022-08-19T02:49:34.731Z,18.88
2022-08-19T02:54:40.059Z,19.93
2022-08-19T02:59:43.351Z,19.13
2022-08-19T03:04:46.843Z,18.67
2022-08-19T03:09:51.546Z,19.30
2022-08-19T03:14:55.123Z,19.87
2022-08-19T03:19:58.545Z,18.90
2022-08-19T03:25:03.610Z,17.95
2022-08-19T03:30:08.166Z,18.77
2022-08-19T03:35:15.159Z,19.13
2022-08-19T03:40:20.054Z,18.52
2022-08-19T03:45:23.324Z,18.58
2022-08-19T03:55:31.477Z,19.30
2022-08-19T04:00:34.878Z,16.92
2022-08-19T04:05:38.705Z,17.10
2022-08-19T04:10:43.475Z,17.20
2022-08-19T04:15:48.004Z,16.23
2022-08-19T04:20:51.350Z,16.65
2022-08-19T04:25:56.679Z,16.30
2022-08-19T04:30:59.997Z,16.77
2022-08-19T04:36:03.281Z,17.92
2022-08-19T04:41:25.616Z,18.70
2022-08-19T04:46:39.970Z,19.15
2022-08-19T04:51:46.503Z,18.75
2022-08-19T04:56:52.176Z,19.58
2022-08-19T05:01:55.518Z,18.75
2022-08-19T05:07:00.881Z,19.25
2022-08-19T05:12:06.853Z,18.23
2022-08-19T05:22:36.760Z,18.10
2022-08-19T05:27:42.043Z,20.50
2022-08-19T05:32:45.744Z,20.25
2022-08-19T05:37:49.062Z,19.02
2022-08-19T05:42:59.659Z,20.63
2022-08-19T05:48:02.945Z,20.02
2022-08-19T05:53:06.396Z,19.20
2022-08-19T05:58:11.132Z,20.55
2022-08-19T06:03:14.475Z,19.70
2022-08-19T06:08:19.496Z,19.63
2022-08-19T06:13:25.490Z,19.40
2022-08-19T06:18:29.001Z,17.90
2022-08-19T06:23:32.689Z,18.90
2022-08-19T06:28:37.315Z,20.10
2022-08-19T06:33:40.627Z,18.23
2022-08-19T06:38:44.694Z,16.23
2022-08-19T06:43:54.011Z,15.60
2022-08-19T06:48:59.440Z,14.88
2022-08-19T06:54:03.112Z,15.05
2022-08-19T06:59:14.666Z,15.07
2022-08-19T07:04:21.170Z,15.15
2022-08-19T07:09:24.758Z,16.50
2022-08-19T07:14:30.156Z,15.02
2022-08-19T07:19:34.341Z,16.23
2022-08-19T07:24:38.845Z,14.43
2022-08-19T07:29:57.287Z,15.85
2022-08-19T07:35:04.300Z,15.32
2022-08-19T07:40:09.719Z,14.65
2022-08-19T07:45:14.628Z,15.63
2022-08-19T07:50:20.400Z,14.88
2022-08-19T07:55:41.685Z,12.85
2022-08-19T08:00:49.768Z,12.90
2022-08-19T08:06:10.400Z,12.68
2022-08-19T08:11:15.390Z,13.00
2022-08-19T08:16:20.346Z,12.73
2022-08-19T08:21:23.635Z,13.35
2022-08-19T08:26:27.392Z,12.73
2022-08-19T08:31:34.589Z,12.70
2022-08-19T08:36:42.738Z,12.38
2022-08-19T08:41:53.847Z,12.25
2022-08-19T08:47:03.628Z,12.00
2022-08-19T08:52:09.676Z,11.20
2022-08-19T08:57:17.622Z,11.30
2022-08-19T09:02:22.455Z,10.33
2022-08-19T09:07:36.872Z,10.83
2022-08-19T09:12:47.296Z,11.18
2022-08-19T09:17:52.140Z,11.68
2022-08-19T09:22:55.772Z,11.88
2022-08-19T09:28:05.818Z,12.23
2022-08-19T09:33:20.667Z,11.20
2022-08-19T09:38:24.093Z,12.73
2022-08-19T09:43:33.520Z,12.60
2022-08-19T09:53:57.882Z,12.45
2022-08-19T09:59:02.006Z,12.30
2022-08-19T10:04:19.735Z,12.70
2022-08-19T10:09:26.161Z,12.40
2022-08-19T10:14:37.451Z,12.30
2022-08-19T10:19:44.046Z,12.50
2022-08-19T10:24:59.350Z,10.95
2022-08-19T10:30:03.441Z,10.93
2022-08-19T10:35:09.471Z,10.02
2022-08-19T10:40:13.650Z,11.17
2022-08-19T10:45:17.668Z,10.70
2022-08-19T10:50:39.791Z,10.23
2022-08-19T10:56:00.652Z,10.33
2022-08-19T11:01:04.126Z,10.67
2022-08-19T11:06:10.442Z,10.80
2022-08-19T11:11:14.180Z,10.50
2022-08-19T11:16:20.437Z,10.02
2022-08-19T11:26:30.401Z,10.80
2022-08-19T11:31:38.278Z,10.20
2022-08-19T11:36:46.289Z,10.00
2022-08-19T11:41:50.058Z,10.20
2022-08-19T11:46:53.635Z,10.50
2022-08-19T11:51:59.431Z,9.17
2022-08-19T11:57:04.673Z,8.50
2022-08-19T12:02:08.209Z,9.85
2022-08-19T12:07:13.063Z,10.00
2022-08-19T12:12:16.873Z,10.30
2022-08-19T12:17:20.293Z,10.20
2022-08-19T12:22:25.277Z,10.23
2022-08-19T12:27:34.728Z,10.60
2022-08-19T12:32:44.896Z,10.20
2022-08-19T12:37:57.477Z,10.82
2022-08-19T12:43:01.467Z,10.05
2022-08-19T12:48:32.803Z,9.70
2022-08-19T12:53:30.226Z,9.00
2022-08-19T12:58:35.636Z,9.20
2022-08-19T13:03:40.709Z,8.15
2022-08-19T13:08:46.555Z,8.90
2022-08-19T13:13:52.140Z,7.93
2022-08-19T13:18:57.221Z,7.65
2022-08-19T13:24:05.267Z,6.90
2022-08-19T13:29:25.942Z,7.50
2022-08-19T13:34:33.993Z,7.35
2022-08-19T13:39:38.802Z,7.93
2022-08-19T13:44:42.208Z,7.78
2022-08-19T13:49:45.759Z,6.93
2022-08-19T13:54:50.670Z,7.90
2022-08-19T13:59:54.111Z,6.68
2022-08-19T14:04:57.503Z,8.67
2022-08-19T14:10:02.479Z,10.70
2022-08-19T14:15:07.924Z,8.70
2022-08-19T14:20:17.770Z,9.17
2022-08-19T14:25:25.409Z,10.30
2022-08-19T14:30:30.855Z,11.10
2022-08-19T14:35:35.716Z,12.45
2022-08-19T14:40:41.621Z,12.00
2022-08-19T14:45:45.099Z,11.90
2022-08-19T14:50:48.995Z,11.07
2022-08-19T14:55:53.856Z,11.13
2022-08-19T15:00:57.273Z,11.68
2022-08-19T15:06:02.495Z,11.20
2022-08-19T15:11:11.730Z,11.80
2022-08-19T15:16:18.036Z,10.77
2022-08-19T15:21:27.297Z,11.75
2022-08-19T15:26:33.564Z,13.68
2022-08-19T15:31:38.931Z,14.43
2022-08-19T15:36:42.419Z,13.98
2022-08-19T15:41:47.946Z,14.40
2022-08-19T15:46:51.316Z,12.95
2022-08-19T15:51:57.862Z,13.33
2022-08-19T15:57:19.915Z,13.77
2022-08-19T16:02:43.817Z,14.05
2022-08-19T16:23:06.247Z,14.00
2022-08-19T16:33:22.676Z,17.52
2022-08-19T16:38:27.637Z,16.60
2022-08-19T16:43:32.820Z,17.33
2022-08-19T16:48:36.777Z,16.47
2022-08-19T16:53:41.712Z,16.95
2022-08-19T16:58:46.445Z,17.75
2022-08-19T17:03:51.594Z,17.15
2022-08-19T17:08:58.433Z,16.43
2022-08-19T17:14:04.214Z,16.52
2022-08-19T17:19:08.924Z,16.52
2022-08-19T17:24:12.411Z,17.00
2022-08-19T17:29:17.205Z,14.00
2022-08-19T17:34:20.622Z,12.30
2022-08-19T17:39:24.179Z,11.37
2022-08-19T17:44:28.921Z,10.40
2022-08-19T17:49:32.645Z,10.88
2022-08-19T17:54:36.818Z,9.32
2022-08-19T17:59:41.600Z,9.18
2022-08-19T18:04:48.649Z,9.40
2022-08-19T18:09:54.898Z,8.97
2022-08-19T18:15:02.140Z,9.90
2022-08-19T18:20:12.090Z,13.40
2022-08-19T18:25:19.312Z,11.20
2022-08-19T18:30:25.562Z,11.48
2022-08-19T18:35:31.470Z,11.10
2022-08-19T18:40:52.141Z,11.00
2022-08-19T18:46:14.139Z,10.18
2022-08-19T18:51:18.992Z,9.60
2022-08-19T18:56:28.968Z,9.32
2022-08-19T19:01:37.185Z,9.27
2022-08-19T19:06:43.070Z,10.13
2022-08-19T19:11:50.398Z,10.88
2022-08-19T19:16:55.383Z,11.43
2022-08-19T19:21:59.267Z,11.30
2022-08-19T19:27:07.145Z,11.40
2022-08-19T19:32:18.427Z,11.50
2022-08-19T19:37:22.668Z,9.57
2022-08-19T19:42:26.258Z,9.63
2022-08-19T19:47:31.517Z,9.40
2022-08-19T19:52:34.910Z,10.20
2022-08-19T19:57:40.177Z,10.60
2022-08-19T20:02:49.614Z,9.90
2022-08-19T20:08:12.746Z,10.63
2022-08-19T20:13:16.482Z,10.30
2022-08-19T20:18:21.829Z,11.93
2022-08-19T20:23:26.561Z,10.95
2022-08-19T20:28:30.242Z,10.47
2022-08-19T20:33:35.292Z,11.20
2022-08-19T20:38:39.368Z,11.18
2022-08-19T20:43:42.771Z,10.67
2022-08-19T20:48:47.610Z,10.20
2022-08-19T20:53:51.024Z,11.13
2022-08-19T20:58:59.362Z,10.90
2022-08-19T21:04:05.403Z,10.60
2022-08-19T21:09:08.757Z,10.40
2022-08-19T21:14:13.021Z,10.77
2022-08-19T21:19:22.030Z,11.75
2022-08-19T21:24:31.384Z,11.70
2022-08-19T21:29:37.510Z,12.13
2022-08-19T21:34:47.475Z,11.88
2022-08-19T21:39:52.088Z,11.60
2022-08-19T21:44:56.282Z,11.90
2022-08-19T21:50:01.096Z,11.10
2022-08-19T21:55:05.274Z,10.57
2022-08-19T22:00:15.155Z,9.95
2022-08-19T22:05:23.321Z,10.27
2022-08-19T22:10:28.851Z,10.40
2022-08-19T22:15:33.292Z,9.73
2022-08-19T22:20:38.172Z,9.73
2022-08-19T22:25:44.872Z,9.10
2022-08-19T22:30:48.912Z,9.57
2022-08-19T22:35:56.927Z,9.30
2022-08-19T22:41:00.288Z,9.30
2022-08-19T22:46:03.622Z,8.63
2022-08-19T22:51:26.246Z,7.97
2022-08-19T22:56:31.877Z,8.17
2022-08-19T23:01:36.009Z,8.07
2022-08-19T23:06:42.163Z,7.63
2022-08-19T23:11:46.420Z,7.70
2022-08-19T23:16:51.369Z,8.03
2022-08-19T23:21:57.111Z,8.53
2022-08-19T23:27:17.617Z,8.40
2022-08-19T23:32:21.882Z,7.72
2022-08-19T23:37:26.659Z,8.10
2022-08-19T23:42:30.122Z,8.10
2022-08-19T23:47:34.150Z,7.30
2022-08-19T23:52:45.746Z,7.40
2022-08-19T23:57:49.152Z,7.38
